createdAt,value
2023-01-06T00:01:53.856Z,9.60
2023-01-06T00:04:23.275Z,10.60
2023-01-06T00:06:51.458Z,11.90
2023-01-06T00:09:21.176Z,11.50
2023-01-06T00:11:49.370Z,10.10
2023-01-06T00:14:17.904Z,9.70
2023-01-06T00:16:46.109Z,10.50
2023-01-06T00:19:14.254Z,11.15
2023-01-06T00:21:43.726Z,11.07
2023-01-06T00:24:12.369Z,8.77
2023-01-06T00:26:41.932Z,9.13
2023-01-06T00:29:11.650Z,8.70
2023-01-06T00:31:39.953Z,9.45
2023-01-06T00:34:11.884Z,11.43
2023-01-06T00:36:42.352Z,8.65
2023-01-06T00:39:13.222Z,9.13
2023-01-06T00:42:00.242Z,8.68
2023-01-06T00:44:28.525Z,9.45
2023-01-06T00:46:56.668Z,9.85
2023-01-06T00:49:24.991Z,6.65
2023-01-06T00:51:54.085Z,7.60
2023-01-06T00:54:22.870Z,8.10
2023-01-06T00:56:54.465Z,7.97
2023-01-06T00:59:24.211Z,8.40
2023-01-06T01:01:54.555Z,10.90
2023-01-06T01:04:23.449Z,6.57
2023-01-06T01:06:52.562Z,7.82
2023-01-06T01:09:23.647Z,7.85
2023-01-06T01:12:12.391Z,9.88
2023-01-06T01:14:43.143Z,7.00
2023-01-06T01:17:12.965Z,6.93
2023-01-06T01:19:41.573Z,7.53
2023-01-06T01:22:10.278Z,6.95
2023-01-06T01:24:38.833Z,10.63
2023-01-06T01:27:08.686Z,6.65
2023-01-06T01:29:37.010Z,8.52
2023-01-06T01:32:05.811Z,7.72
2023-01-06T01:34:34.086Z,6.13
2023-01-06T01:37:03.560Z,8.25
2023-01-06T01:39:32.221Z,7.85
2023-01-06T01:42:01.055Z,7.75
2023-01-06T01:44:58.773Z,7.13
2023-01-06T01:47:33.864Z,6.18
2023-01-06T01:50:05.928Z,7.90
2023-01-06T01:52:34.687Z,6.20
2023-01-06T01:55:04.068Z,8.10
2023-01-06T01:57:39.680Z,5.78
2023-01-06T02:00:11.043Z,11.13
2023-01-06T02:02:44.207Z,4.78
2023-01-06T02:05:17.567Z,5.30
2023-01-06T02:07:46.815Z,5.43
2023-01-06T02:10:17.410Z,5.18
2023-01-06T02:12:49.315Z,5.47
2023-01-06T02:15:24.986Z,5.30
2023-01-06T02:18:09.223Z,5.93
2023-01-06T02:20:56.357Z,6.90
2023-01-06T02:23:54.311Z,4.85
2023-01-06T02:26:57.693Z,5.15
2023-01-06T02:30:11.017Z,6.75
2023-01-06T02:33:09.753Z,5.15
2023-01-06T02:35:58.799Z,5.72
2023-01-06T02:38:40.995Z,4.68
2023-01-06T02:41:28.609Z,5.93
2023-01-06T02:44:03.855Z,5.03
2023-01-06T02:46:46.926Z,3.50
2023-01-06T02:49:28.114Z,7.95
2023-01-06T02:52:01.062Z,4.18
2023-01-06T02:54:39.549Z,4.40
2023-01-06T02:57:16.223Z,4.82
2023-01-06T02:59:51.123Z,5.57
2023-01-06T03:02:21.280Z,4.70
2023-01-06T03:04:52.020Z,5.30
2023-01-06T03:07:24.149Z,4.47
2023-01-06T03:09:55.889Z,7.50
2023-01-06T03:12:30.367Z,5.97
2023-01-06T03:14:59.392Z,4.60
2023-01-06T03:17:27.996Z,5.60
2023-01-06T03:19:58.307Z,5.03
2023-01-06T03:22:27.245Z,4.88
2023-01-06T03:24:55.914Z,6.32
2023-01-06T03:27:28.018Z,5.03
2023-01-06T03:29:57.859Z,4.90
2023-01-06T03:32:33.058Z,9.10
2023-01-06T03:35:28.428Z,5.18
2023-01-06T03:38:03.608Z,5.85
2023-01-06T03:40:40.451Z,5.32
2023-01-06T03:43:16.589Z,6.75
2023-01-06T03:45:58.319Z,5.75
2023-01-06T03:48:45.567Z,4.68
2023-01-06T03:51:26.735Z,5.63
2023-01-06T03:54:03.093Z,5.60
2023-01-06T03:56:36.294Z,5.00
2023-01-06T03:59:10.689Z,5.95
2023-01-06T04:01:43.382Z,7.30
2023-01-06T04:04:12.197Z,6.93
2023-01-06T04:06:41.790Z,6.28
2023-01-06T04:09:11.495Z,6.38
2023-01-06T04:11:57.443Z,7.22
2023-01-06T04:14:25.606Z,4.32
2023-01-06T04:16:54.484Z,8.48
2023-01-06T04:19:23.714Z,5.35
2023-01-06T04:21:53.419Z,6.22
2023-01-06T04:24:21.867Z,6.18
2023-01-06T04:26:50.242Z,6.93
2023-01-06T04:29:18.785Z,6.97
2023-01-06T04:31:47.426Z,4.85
2023-01-06T04:34:15.799Z,5.57
2023-01-06T04:36:44.111Z,4.72
2023-01-06T04:39:14.166Z,5.65
2023-01-06T04:41:42.536Z,5.97
2023-01-06T04:44:10.854Z,6.85
2023-01-06T04:46:39.229Z,5.50
2023-01-06T04:49:07.654Z,4.38
2023-01-06T04:51:36.347Z,4.60
2023-01-06T04:54:04.741Z,4.30
2023-01-06T04:56:34.483Z,5.32
2023-01-06T04:59:02.850Z,4.50
2023-01-06T05:01:31.198Z,4.03
2023-01-06T05:03:59.383Z,4.82
2023-01-06T05:06:27.672Z,3.88
2023-01-06T05:08:56.338Z,4.57
2023-01-06T05:11:26.431Z,5.15
2023-01-06T05:13:56.143Z,5.70
2023-01-06T05:16:26.984Z,5.07
2023-01-06T05:18:55.957Z,5.70
2023-01-06T05:21:25.855Z,4.00
2023-01-06T05:23:54.636Z,4.15
2023-01-06T05:26:26.337Z,4.53
2023-01-06T05:28:56.938Z,4.68
2023-01-06T05:31:25.478Z,7.05
2023-01-06T05:33:53.669Z,5.05
2023-01-06T05:36:21.948Z,9.07
2023-01-06T05:38:53.606Z,5.03
2023-01-06T05:41:21.981Z,4.97
2023-01-06T05:43:50.249Z,4.90
2023-01-06T05:46:20.121Z,4.13
2023-01-06T05:48:48.407Z,5.00
2023-01-06T05:51:17.769Z,4.47
2023-01-06T05:53:47.658Z,4.18
2023-01-06T05:56:18.304Z,5.00
2023-01-06T05:58:48.684Z,5.38
2023-01-06T06:01:20.232Z,4.78
2023-01-06T06:03:49.283Z,4.95
2023-01-06T06:06:17.867Z,6.82
2023-01-06T06:08:46.221Z,4.47
2023-01-06T06:11:16.658Z,6.05
2023-01-06T06:13:47.744Z,3.80
2023-01-06T06:16:17.770Z,4.03
2023-01-06T06:18:50.729Z,3.40
2023-01-06T06:21:20.912Z,4.18
2023-01-06T06:23:49.284Z,4.70
2023-01-06T06:26:17.981Z,4.20
2023-01-06T06:28:46.261Z,11.32
2023-01-06T06:31:18.685Z,4.35
2023-01-06T06:33:51.409Z,6.18
2023-01-06T06:36:20.162Z,4.88
2023-01-06T06:38:50.771Z,4.18
2023-01-06T06:41:19.911Z,3.72
2023-01-06T06:43:49.631Z,4.28
2023-01-06T06:46:18.191Z,6.70
2023-01-06T06:48:46.513Z,4.32
2023-01-06T06:51:18.104Z,4.72
2023-01-06T06:53:46.828Z,6.15
2023-01-06T06:56:19.295Z,4.38
2023-01-06T06:58:47.542Z,3.28
2023-01-06T07:01:17.804Z,5.63
2023-01-06T07:03:46.534Z,4.75
2023-01-06T07:06:18.926Z,6.63
2023-01-06T07:08:47.689Z,3.38
2023-01-06T07:11:16.159Z,3.67
2023-01-06T07:13:44.579Z,4.63
2023-01-06T07:16:13.358Z,4.07
2023-01-06T07:18:41.617Z,4.10
2023-01-06T07:21:09.855Z,4.00
2023-01-06T07:23:39.518Z,6.60
2023-01-06T07:26:07.778Z,3.97
2023-01-06T07:28:36.144Z,3.60
2023-01-06T07:31:04.489Z,4.82
2023-01-06T07:33:32.731Z,2.90
2023-01-06T07:36:01.077Z,4.20
2023-01-06T07:38:29.447Z,3.35
2023-01-06T07:41:02.107Z,5.88
2023-01-06T07:43:30.464Z,2.97
2023-01-06T07:45:58.925Z,3.05
2023-01-06T07:48:27.179Z,3.15
2023-01-06T07:50:55.460Z,3.08
2023-01-06T07:53:23.806Z,3.38
2023-01-06T07:55:53.270Z,2.97
2023-01-06T07:58:24.890Z,3.30
2023-01-06T08:00:53.522Z,5.93
2023-01-06T08:03:22.028Z,4.13
2023-01-06T08:05:50.417Z,3.05
2023-01-06T08:08:18.717Z,2.95
2023-01-06T08:10:46.937Z,2.80
2023-01-06T08:13:15.204Z,3.10
2023-01-06T08:15:45.064Z,2.15
2023-01-06T08:18:13.341Z,7.82
2023-01-06T08:20:41.710Z,2.67
2023-01-06T08:23:09.938Z,2.67
2023-01-06T08:25:38.079Z,1.90
2023-01-06T08:28:06.553Z,2.45
2023-01-06T08:30:40.011Z,1.90
2023-01-06T08:33:09.773Z,3.40
2023-01-06T08:35:37.925Z,4.65
2023-01-06T08:38:06.129Z,2.25
2023-01-06T08:40:34.346Z,1.90
2023-01-06T08:43:02.667Z,2.05
2023-01-06T08:45:30.857Z,1.80
2023-01-06T08:47:59.142Z,2.08
2023-01-06T08:50:28.831Z,2.05
2023-01-06T08:52:57.176Z,2.35
2023-01-06T08:55:25.413Z,3.25
2023-01-06T08:57:55.046Z,2.50
2023-01-06T09:00:23.748Z,1.77
2023-01-06T09:02:52.187Z,1.65
2023-01-06T09:05:20.493Z,1.40
2023-01-06T09:07:50.968Z,2.10
2023-01-06T09:10:19.920Z,3.47
2023-01-06T09:12:48.707Z,2.35
2023-01-06T09:15:16.988Z,2.05
2023-01-06T09:17:45.377Z,2.95
2023-01-06T09:20:13.746Z,1.75
2023-01-06T09:22:42.009Z,1.98
2023-01-06T09:25:11.679Z,2.15
2023-01-06T09:27:39.957Z,4.97
2023-01-06T09:30:09.242Z,2.35
2023-01-06T09:32:37.536Z,1.63
2023-01-06T09:35:06.515Z,1.67
2023-01-06T09:37:34.749Z,1.77
2023-01-06T09:40:03.097Z,1.60
2023-01-06T09:43:00.686Z,1.70
2023-01-06T09:45:37.962Z,1.90
2023-01-06T09:48:12.101Z,2.77
2023-01-06T09:50:43.908Z,1.93
2023-01-06T09:53:17.768Z,1.70
2023-01-06T09:55:48.797Z,1.90
2023-01-06T09:58:22.154Z,2.00
2023-01-06T10:00:52.744Z,2.38
2023-01-06T10:03:23.178Z,2.88
2023-01-06T10:06:01.963Z,6.72
2023-01-06T10:08:43.230Z,1.95
2023-01-06T10:11:15.954Z,2.00
2023-01-06T10:14:04.071Z,2.95
2023-01-06T10:16:45.457Z,5.32
2023-01-06T10:19:26.031Z,2.42
2023-01-06T10:22:04.462Z,2.38
2023-01-06T10:24:50.014Z,1.98
2023-01-06T10:27:27.121Z,2.15
2023-01-06T10:30:00.403Z,6.40
2023-01-06T10:32:33.079Z,2.55
2023-01-06T10:35:01.945Z,2.20
2023-01-06T10:37:37.681Z,1.65
2023-01-06T10:40:19.598Z,2.17
2023-01-06T10:43:00.453Z,4.45
2023-01-06T10:45:37.923Z,2.50
2023-01-06T10:48:08.825Z,7.03
2023-01-06T10:50:37.038Z,1.77
2023-01-06T10:53:06.233Z,1.67
2023-01-06T10:55:41.893Z,2.38
2023-01-06T10:58:23.737Z,2.10
2023-01-06T11:01:08.265Z,1.80
2023-01-06T11:03:37.666Z,1.77
2023-01-06T11:06:15.284Z,2.63
2023-01-06T11:08:43.770Z,1.90
2023-01-06T11:11:27.314Z,2.47
2023-01-06T11:13:58.828Z,1.83
2023-01-06T11:16:31.536Z,2.42
2023-01-06T11:19:02.423Z,1.88
2023-01-06T11:21:40.823Z,1.30
2023-01-06T11:24:20.634Z,2.45
2023-01-06T11:26:54.276Z,1.70
2023-01-06T11:29:28.985Z,2.13
2023-01-06T11:32:02.253Z,1.90
2023-01-06T11:34:30.903Z,2.30
2023-01-06T11:37:00.629Z,1.90
2023-01-06T11:39:34.323Z,1.73
2023-01-06T11:42:11.720Z,2.53
2023-01-06T11:44:41.635Z,2.42
2023-01-06T11:47:15.453Z,1.95
2023-01-06T11:49:48.583Z,2.10
2023-01-06T11:52:24.314Z,4.93
2023-01-06T11:55:02.096Z,1.63
2023-01-06T11:57:38.796Z,2.20
2023-01-06T12:00:26.155Z,2.28
2023-01-06T12:03:07.690Z,1.70
2023-01-06T12:05:46.935Z,1.98
2023-01-06T12:08:20.996Z,3.47
2023-01-06T12:10:54.759Z,2.15
2023-01-06T12:13:23.853Z,2.17
2023-01-06T12:16:00.140Z,3.63
2023-01-06T12:18:33.871Z,3.05
2023-01-06T12:21:04.879Z,2.72
2023-01-06T12:23:35.966Z,1.95
2023-01-06T12:26:10.158Z,2.30
2023-01-06T12:28:41.127Z,1.63
2023-01-06T12:31:15.558Z,2.97
2023-01-06T12:33:52.072Z,2.53
2023-01-06T12:36:29.051Z,1.67
2023-01-06T12:38:59.782Z,1.83
2023-01-06T12:41:37.082Z,2.38
2023-01-06T12:44:15.091Z,1.77
2023-01-06T12:46:52.124Z,2.70
2023-01-06T12:49:40.036Z,2.15
2023-01-06T12:52:13.323Z,4.30
2023-01-06T12:54:41.730Z,2.85
2023-01-06T12:57:21.607Z,2.33
2023-01-06T13:00:08.030Z,4.90
2023-01-06T13:02:53.883Z,2.75
2023-01-06T13:05:50.799Z,3.35
2023-01-06T13:08:32.897Z,2.50
2023-01-06T13:11:14.828Z,2.25
2023-01-06T13:14:04.444Z,2.40
2023-01-06T13:16:40.477Z,3.08
2023-01-06T13:19:22.003Z,3.33
2023-01-06T13:21:58.767Z,4.05
2023-01-06T13:24:51.388Z,3.13
2023-01-06T13:27:37.281Z,4.38
2023-01-06T13:30:22.578Z,3.55
2023-01-06T13:33:15.506Z,3.72
2023-01-06T13:35:56.762Z,3.38
2023-01-06T13:38:53.394Z,3.67
2023-01-06T13:41:25.899Z,3.47
2023-01-06T13:43:57.593Z,3.95
2023-01-06T13:46:28.630Z,3.60
2023-01-06T13:49:01.833Z,4.85
2023-01-06T13:51:33.825Z,3.58
2023-01-06T13:54:04.127Z,3.88
2023-01-06T13:56:33.592Z,3.78
2023-01-06T13:59:24.142Z,3.50
2023-01-06T14:01:53.398Z,3.75
2023-01-06T14:04:48.679Z,3.35
2023-01-06T14:07:33.050Z,3.90
2023-01-06T14:10:04.012Z,4.72
2023-01-06T14:12:35.257Z,9.30
2023-01-06T14:15:06.160Z,4.00
2023-01-06T14:17:42.828Z,5.85
2023-01-06T14:20:31.085Z,5.00
2023-01-06T14:23:01.931Z,6.60
2023-01-06T14:25:34.279Z,4.95
2023-01-06T14:28:27.137Z,4.10
2023-01-06T14:31:28.413Z,3.45
2023-01-06T14:33:58.561Z,4.40
2023-01-06T14:36:28.083Z,7.13
2023-01-06T14:39:00.462Z,4.18
2023-01-06T14:41:32.975Z,3.80
2023-01-06T14:44:06.083Z,5.40
2023-01-06T14:46:41.230Z,4.10
2023-01-06T14:49:18.156Z,4.68
2023-01-06T14:51:47.972Z,5.18
2023-01-06T14:54:25.466Z,3.72
2023-01-06T14:56:56.559Z,4.25
2023-01-06T14:59:25.529Z,5.25
2023-01-06T15:02:02.437Z,4.38
2023-01-06T15:04:32.904Z,6.28
2023-01-06T15:07:17.017Z,4.00
2023-01-06T15:09:45.415Z,4.78
2023-01-06T15:12:33.638Z,6.30
2023-01-06T15:15:15.603Z,3.95
2023-01-06T15:17:43.986Z,4.22
2023-01-06T15:20:14.799Z,7.15
2023-01-06T15:22:46.708Z,7.30
2023-01-06T15:25:21.609Z,4.88
2023-01-06T15:27:53.380Z,3.85
2023-01-06T15:30:23.567Z,6.75
2023-01-06T15:32:55.941Z,4.35
2023-01-06T15:35:27.906Z,5.13
2023-01-06T15:38:03.124Z,6.55
2023-01-06T15:40:31.419Z,4.68
2023-01-06T15:43:01.129Z,5.43
2023-01-06T15:45:33.378Z,6.53
2023-01-06T15:48:10.042Z,5.85
2023-01-06T15:50:38.491Z,4.97
2023-01-06T15:53:15.101Z,5.22
2023-01-06T15:55:44.276Z,5.95
2023-01-06T15:58:23.728Z,4.93
2023-01-06T16:00:59.089Z,5.95
2023-01-06T16:03:30.179Z,4.95
2023-01-06T16:06:11.207Z,5.30
2023-01-06T16:08:40.225Z,5.35
2023-01-06T16:11:40.841Z,4.85
2023-01-06T16:14:27.381Z,7.05
2023-01-06T16:17:04.009Z,7.13
2023-01-06T16:19:33.264Z,5.55
2023-01-06T16:22:08.157Z,5.47
2023-01-06T16:24:36.597Z,7.88
2023-01-06T16:27:06.949Z,6.20
2023-01-06T16:29:38.598Z,4.90
2023-01-06T16:32:22.026Z,3.95
2023-01-06T16:34:52.386Z,6.30
2023-01-06T16:37:20.798Z,5.60
2023-01-06T16:39:49.152Z,5.30
2023-01-06T16:42:50.690Z,5.22
2023-01-06T16:45:25.212Z,7.10
2023-01-06T16:47:54.336Z,5.88
2023-01-06T16:50:25.255Z,6.57
2023-01-06T16:53:02.409Z,7.25
2023-01-06T16:55:31.146Z,5.68
2023-01-06T16:58:01.404Z,9.70
2023-01-06T17:00:39.291Z,6.20
2023-01-06T17:03:13.667Z,5.25
2023-01-06T17:05:42.369Z,10.52
2023-01-06T17:08:14.024Z,9.63
2023-01-06T17:10:42.689Z,10.48
2023-01-06T17:13:32.991Z,9.63
2023-01-06T17:16:13.076Z,14.68
2023-01-06T17:18:52.517Z,8.95
2023-01-06T17:21:24.642Z,10.18
2023-01-06T17:23:58.695Z,7.43
2023-01-06T17:26:28.460Z,7.10
2023-01-06T17:28:58.649Z,7.53
2023-01-06T17:31:38.145Z,7.65
2023-01-06T17:34:13.557Z,5.72
2023-01-06T17:36:45.385Z,9.55
2023-01-06T17:39:18.736Z,9.35
2023-01-06T17:41:47.420Z,8.48
2023-01-06T17:44:17.961Z,5.82
2023-01-06T17:46:48.103Z,7.50
2023-01-06T17:49:35.000Z,7.60
2023-01-06T17:52:14.908Z,8.23
2023-01-06T17:55:02.444Z,11.73
2023-01-06T17:57:30.761Z,13.65
2023-01-06T17:59:59.108Z,11.40
2023-01-06T18:02:41.801Z,14.35
2023-01-06T18:06:07.564Z,15.02
2023-01-06T18:08:38.186Z,10.23
2023-01-06T18:11:25.074Z,10.60
2023-01-06T18:13:53.912Z,9.27
2023-01-06T18:16:29.611Z,7.70
2023-01-06T18:19:25.507Z,6.30
2023-01-06T18:21:54.626Z,8.40
2023-01-06T18:24:26.834Z,6.80
2023-01-06T18:26:57.532Z,13.57
2023-01-06T18:29:27.468Z,12.27
2023-01-06T18:31:57.045Z,15.88
2023-01-06T18:34:31.407Z,11.50
2023-01-06T18:37:01.910Z,18.13
2023-01-06T18:39:32.456Z,20.25
2023-01-06T18:42:20.506Z,16.02
2023-01-06T18:44:48.910Z,17.02
2023-01-06T18:47:19.321Z,11.85
2023-01-06T18:49:49.873Z,10.93
2023-01-06T18:52:43.400Z,11.38
2023-01-06T18:55:23.318Z,12.65
2023-01-06T18:57:57.673Z,13.98
2023-01-06T19:00:36.798Z,8.07
2023-01-06T19:03:18.270Z,9.68
2023-01-06T19:05:48.813Z,7.30
2023-01-06T19:08:20.956Z,8.98
2023-01-06T19:10:50.869Z,8.55
2023-01-06T19:13:23.503Z,7.05
2023-01-06T19:15:52.088Z,9.82
2023-01-06T19:18:20.623Z,7.55
2023-01-06T19:20:50.427Z,6.80
2023-01-06T19:23:22.503Z,6.15
2023-01-06T19:25:58.800Z,5.13
2023-01-06T19:28:31.021Z,6.10
2023-01-06T19:31:00.250Z,5.65
2023-01-06T19:33:40.338Z,7.05
2023-01-06T19:36:33.002Z,7.07
2023-01-06T19:39:03.141Z,6.75
2023-01-06T19:41:34.804Z,4.13
2023-01-06T19:44:10.658Z,7.80
2023-01-06T19:46:41.443Z,4.25
2023-01-06T19:49:17.747Z,4.10
2023-01-06T19:51:49.503Z,8.55
2023-01-06T19:54:27.962Z,3.97
2023-01-06T19:56:57.786Z,4.55
2023-01-06T19:59:29.390Z,5.05
2023-01-06T20:02:18.055Z,4.85
2023-01-06T20:04:46.525Z,9.60
2023-01-06T20:07:16.230Z,13.27
2023-01-06T20:09:44.432Z,6.47
2023-01-06T20:12:12.983Z,10.00
2023-01-06T20:14:41.228Z,8.38
2023-01-06T20:17:09.617Z,6.78
2023-01-06T20:19:37.810Z,7.93
2023-01-06T20:22:06.521Z,7.70
2023-01-06T20:24:36.390Z,9.18
2023-01-06T20:27:05.226Z,6.07
2023-01-06T20:29:33.455Z,8.48
2023-01-06T20:32:01.888Z,6.07
2023-01-06T20:34:30.189Z,5.85
2023-01-06T20:36:59.361Z,8.13
2023-01-06T20:39:28.143Z,7.65
2023-01-06T20:41:57.885Z,6.63
2023-01-06T20:44:26.192Z,6.80
2023-01-06T20:46:54.452Z,5.63
2023-01-06T20:49:22.661Z,6.18
2023-01-06T20:51:50.904Z,5.70
2023-01-06T20:54:19.122Z,7.75
2023-01-06T20:56:47.395Z,6.55
2023-01-06T20:59:17.008Z,7.95
2023-01-06T21:01:45.339Z,4.57
2023-01-06T21:04:13.671Z,5.13
2023-01-06T21:06:41.891Z,6.70
2023-01-06T21:09:10.091Z,4.22
2023-01-06T21:11:38.447Z,6.90
2023-01-06T21:14:07.867Z,6.32
2023-01-06T21:16:37.553Z,4.28
2023-01-06T21:19:05.845Z,4.55
2023-01-06T21:21:34.103Z,6.00
2023-01-06T21:24:02.379Z,6.90
2023-01-06T21:26:30.700Z,5.22
2023-01-06T21:28:58.948Z,11.05
2023-01-06T21:31:27.286Z,9.00
2023-01-06T21:33:56.921Z,4.95
2023-01-06T21:36:25.309Z,5.03
2023-01-06T21:38:53.602Z,7.07
2023-01-06T21:41:39.413Z,6.70
2023-01-06T21:44:07.655Z,6.65
2023-01-06T21:46:39.807Z,6.05
2023-01-06T21:49:09.677Z,5.32
2023-01-06T21:51:38.323Z,5.47
2023-01-06T21:54:06.887Z,4.57
2023-01-06T21:56:36.212Z,5.07
2023-01-06T21:59:04.410Z,3.60
2023-01-06T22:01:32.796Z,7.85
2023-01-06T22:04:01.086Z,7.43
2023-01-06T22:06:31.185Z,9.20
2023-01-06T22:09:02.897Z,7.65
2023-01-06T22:11:32.115Z,7.10
2023-01-06T22:14:01.032Z,12.35
2023-01-06T22:16:29.538Z,9.73
2023-01-06T22:18:58.305Z,8.15
2023-01-06T22:21:27.257Z,5.50
2023-01-06T22:23:58.469Z,5.55
2023-01-06T22:26:26.816Z,6.50
2023-01-06T22:28:54.983Z,9.02
2023-01-06T22:31:23.227Z,6.53
2023-01-06T22:33:51.505Z,6.65
2023-01-06T22:36:19.700Z,6.35
2023-01-06T22:38:47.944Z,8.40
2023-01-06T22:41:17.521Z,7.68
2023-01-06T22:43:45.828Z,9.55
2023-01-06T22:46:15.259Z,9.70
2023-01-06T22:48:45.593Z,10.73
2023-01-06T22:51:14.135Z,19.65
2023-01-06T22:53:42.369Z,15.82
2023-01-06T22:56:12.233Z,15.68
2023-01-06T22:58:42.368Z,18.25
2023-01-06T23:01:11.059Z,16.13
2023-01-06T23:03:39.547Z,17.15
2023-01-06T23:06:10.807Z,19.27
2023-01-06T23:08:51.085Z,19.92
2023-01-06T23:11:27.868Z,25.73
2023-01-06T23:13:58.882Z,26.33
2023-01-06T23:16:29.985Z,25.48
2023-01-06T23:18:58.509Z,21.63
2023-01-06T23:21:29.749Z,22.85
2023-01-06T23:23:58.404Z,22.17
2023-01-06T23:26:29.818Z,18.80
2023-01-06T23:28:59.686Z,19.67
2023-01-06T23:31:30.351Z,23.08
2023-01-06T23:34:03.863Z,20.35
2023-01-06T23:36:32.264Z,17.15
2023-01-06T23:39:01.689Z,17.70
2023-01-06T23:41:31.508Z,18.00
2023-01-06T23:44:02.216Z,16.35
2023-01-06T23:46:32.242Z,17.73
2023-01-06T23:49:00.820Z,13.32
2023-01-06T23:51:30.652Z,21.75
2023-01-06T23:53:59.590Z,14.05
2023-01-06T23:56:29.510Z,20.40
2023-01-06T23:58:59.835Z,18.33
